»·PEaware :: AAL357 KSAT-KDFW

AAL357 :: KSAT-KDFW

FLIGHT INFORMATION

Flight Status: Arrived
Operator:
American Airlines
More flights by this operator :: More flights under this callsign
Pilot: Drew L. (13237)
Aircraft: MCDONNELL-DOUGLAS MD-82
(MD82)
More flights by this aircraft type
Origin: KSAT San Antonio Intl
United States
Destination: KDFW Dallas-Ft Worth Intl
United States
More flights between these airports :: More routes between these airports
Route: ALAMO2 GOBBY GUTZZ SOCKK3
File this flight plan on PilotEdge
Remarks:
Altitude:
(Current/Filed)
27,000ft
Speed:
(Current/Filed)
450kts
Departed: 30-Apr-17 12:38 PM
Arrived: 30-Apr-17 01:22 PM
Distance/Time
Traveled:
215nm/0:44
Distance/Time
To Go:
Arrived

Flight Plot

Page will automatically refresh every two minutes.

Flight plan parsing failed; only flown route is shown


Map Options




Map Legend


Flown Route
Filed Route
Departure Airport
Arrival Airport
Navaid (VOR, NDB)
Fix

Horizontal Profiles

Position Reports

Time Latitude Longitude Heading Altitude Ground
Speed
30-Apr-17 12:32 29.528133 -98.471798 327 815ft 0kts
30-Apr-17 12:33 29.528133 -98.471798 327 815ft 0kts
30-Apr-17 12:34 29.527804 -98.471560 333 815ft 3kts
30-Apr-17 12:35 29.527464 -98.471577 58 815ft 0kts
30-Apr-17 12:36 29.527464 -98.471577 58 815ft 0kts
30-Apr-17 12:37 29.527464 -98.471577 58 815ft 0kts
30-Apr-17 12:38 29.527464 -98.471577 58 815ft 0kts
30-Apr-17 12:39 29.527825 -98.469348 132 815ft 12kts
30-Apr-17 12:40 29.529056 -98.467910 311 815ft 48kts
30-Apr-17 12:41 29.556590 -98.503340 308 2640ft 191kts
30-Apr-17 12:42 29.611631 -98.504578 30 6047ft 273kts
30-Apr-17 12:43 29.661283 -98.432262 59 9673ft 326kts
30-Apr-17 12:44 29.739351 -98.397397 357 13399ft 330kts
30-Apr-17 12:45 29.834125 -98.384050 0 16971ft 359kts
30-Apr-17 12:46 29.936830 -98.368328 1 19591ft 395kts
30-Apr-17 12:47 30.052177 -98.350497 1 21546ft 447kts
30-Apr-17 12:48 30.178501 -98.330912 1 23603ft 476kts
30-Apr-17 12:49 30.310816 -98.310440 1 25758ft 489kts
30-Apr-17 12:50 30.447523 -98.289313 1 26987ft 507kts
30-Apr-17 12:51 30.586433 -98.267812 1 26991ft 506kts
30-Apr-17 12:52 30.725687 -98.246274 1 26993ft 506kts
30-Apr-17 12:53 30.864298 -98.224834 1 26970ft 506kts
30-Apr-17 12:54 31.003474 -98.203305 1 26970ft 506kts
30-Apr-17 12:55 31.132074 -98.183410 1 26934ft 506kts
30-Apr-17 12:56 31.270556 -98.161986 1 26935ft 505kts
30-Apr-17 12:57 31.408585 -98.140639 1 26937ft 503kts
30-Apr-17 12:58 31.546514 -98.119293 1 25254ft 492kts
30-Apr-17 12:59 31.678617 -98.089676 18 23367ft 487kts
30-Apr-17 13:00 31.793656 -98.008137 26 21298ft 480kts
30-Apr-17 13:01 31.907503 -97.931474 27 19142ft 471kts
30-Apr-17 13:02 32.019110 -97.856475 26 17377ft 451kts
30-Apr-17 13:03 32.122484 -97.787052 26 16201ft 422kts
30-Apr-17 13:04 32.221912 -97.720511 26 14700ft 406kts
30-Apr-17 13:05 32.320921 -97.661146 23 13046ft 395kts
30-Apr-17 13:06 32.408754 -97.598944 44 12367ft 352kts
30-Apr-17 13:07 32.473455 -97.520580 53 11522ft 316kts
30-Apr-17 13:08 32.487238 -97.424440 90 10461ft 306kts
30-Apr-17 13:09 32.495189 -97.324962 87 9300ft 305kts
30-Apr-17 13:10 32.512046 -97.227102 70 8098ft 304kts
30-Apr-17 13:11 32.537389 -97.131939 67 6809ft 305kts
30-Apr-17 13:12 32.561141 -97.041699 66 6370ft 270kts
30-Apr-17 13:13 32.582397 -96.960996 65 5924ft 251kts
30-Apr-17 13:14 32.603053 -96.882682 64 5297ft 239kts
30-Apr-17 13:15 32.626405 -96.816294 23 4886ft 202kts
30-Apr-17 13:16 32.671112 -96.834131 315 4538ft 183kts
30-Apr-17 13:17 32.705894 -96.872074 319 4016ft 159kts
30-Apr-17 13:18 32.738912 -96.906956 319 3891ft 159kts
30-Apr-17 13:19 32.769436 -96.939261 319 3627ft 138kts
30-Apr-17 13:20 32.797420 -96.967810 316 2914ft 134kts
30-Apr-17 13:21 32.824167 -96.995363 315 2180ft 128kts
30-Apr-17 13:22 32.850363 -97.022112 310 1540ft 129kts
30-Apr-17 13:23 32.876478 -97.049077 311 1034ft 122kts
30-Apr-17 13:24 32.901726 -97.075065 317 612ft 26kts
30-Apr-17 13:25 32.906007 -97.077007 122 612ft 7kts
30-Apr-17 13:26 32.903495 -97.074467 139 612ft 16kts
30-Apr-17 13:27 32.899261 -97.069960 140 612ft 23kts
30-Apr-17 13:28 32.895096 -97.065663 122 612ft 12kts
30-Apr-17 13:29 32.892987 -97.061908 140 612ft 22kts
30-Apr-17 13:30 32.890076 -97.058885 140 612ft 3kts
30-Apr-17 13:31 32.887706 -97.056401 133 612ft 21kts
30-Apr-17 13:32 32.886078 -97.050046 90 612ft 30kts
30-Apr-17 13:33 32.886043 -97.039386 90 639ft 21kts
30-Apr-17 13:34 32.886726 -97.033202 0 612ft 14kts
30-Apr-17 13:35 32.895555 -97.033194 351 612ft 27kts
30-Apr-17 13:36 32.897104 -97.034717 277 612ft 0kts

Navigation Log

Ident Type
Flight plan parsing failed, navigation log unavailable